createdAt,value
2024-01-24T00:01:51.858Z,2.75
2024-01-24T00:04:20.179Z,3.53
2024-01-24T00:06:48.366Z,5.82
2024-01-24T00:09:17.794Z,2.78
2024-01-24T00:11:45.982Z,5.95
2024-01-24T00:14:14.314Z,4.35
2024-01-24T00:16:42.490Z,2.72
2024-01-24T00:19:10.686Z,4.53
2024-01-24T00:21:40.181Z,2.72
2024-01-24T00:24:08.554Z,3.55
2024-01-24T00:26:40.252Z,4.32
2024-01-24T00:29:08.848Z,2.55
2024-01-24T00:31:36.972Z,5.10
2024-01-24T00:34:05.393Z,1.67
2024-01-24T00:36:33.548Z,3.97
2024-01-24T00:39:01.817Z,4.65
2024-01-24T00:41:29.876Z,3.90
2024-01-24T00:43:59.783Z,2.85
2024-01-24T00:46:27.908Z,2.65
2024-01-24T00:48:56.045Z,3.72
2024-01-24T00:51:24.146Z,2.42
2024-01-24T00:53:53.664Z,2.90
2024-01-24T00:56:22.014Z,4.20
2024-01-24T00:58:50.067Z,3.08
2024-01-24T01:01:19.549Z,7.13
2024-01-24T01:03:47.880Z,6.75
2024-01-24T01:06:17.155Z,3.33
2024-01-24T01:08:45.286Z,2.10
2024-01-24T01:11:13.379Z,6.78
2024-01-24T01:13:41.449Z,3.80
2024-01-24T01:16:09.520Z,3.80
2024-01-24T01:18:38.929Z,6.63
2024-01-24T01:21:07.197Z,4.35
2024-01-24T01:23:35.213Z,2.80
2024-01-24T01:26:03.194Z,5.63
2024-01-24T01:28:31.174Z,4.68
2024-01-24T01:30:59.139Z,3.40
2024-01-24T01:33:27.534Z,2.40
2024-01-24T01:36:08.497Z,5.03
2024-01-24T01:38:42.145Z,3.25
2024-01-24T01:41:10.116Z,3.60
2024-01-24T01:43:38.069Z,3.70
2024-01-24T01:46:09.016Z,4.63
2024-01-24T01:48:37.616Z,4.00
2024-01-24T01:51:08.915Z,5.07
2024-01-24T01:53:39.939Z,3.88
2024-01-24T01:56:10.398Z,3.95
2024-01-24T01:58:39.134Z,6.25
2024-01-24T02:01:09.299Z,5.30
2024-01-24T02:03:39.376Z,6.32
2024-01-24T02:06:09.394Z,3.45
2024-01-24T02:08:37.666Z,4.40
2024-01-24T02:11:06.266Z,2.10
2024-01-24T02:13:34.617Z,2.35
2024-01-24T02:16:03.166Z,8.23
2024-01-24T02:18:31.546Z,2.20
2024-01-24T02:20:59.728Z,2.65
2024-01-24T02:23:29.211Z,2.45
2024-01-24T02:25:58.978Z,3.85
2024-01-24T02:28:27.239Z,1.20
2024-01-24T02:30:55.466Z,1.73
2024-01-24T02:33:23.735Z,2.92
2024-01-24T02:35:52.188Z,3.55
2024-01-24T02:38:20.290Z,2.28
2024-01-24T02:40:48.526Z,2.30
2024-01-24T02:43:18.027Z,3.65
2024-01-24T02:45:46.254Z,2.00
2024-01-24T02:48:14.426Z,3.03
2024-01-24T02:50:42.676Z,4.20
2024-01-24T02:53:11.019Z,2.72
2024-01-24T02:55:40.414Z,2.35
2024-01-24T02:58:08.910Z,2.08
2024-01-24T03:00:38.582Z,3.40
2024-01-24T03:03:07.410Z,2.00
2024-01-24T03:05:35.634Z,2.75
2024-01-24T03:08:05.465Z,1.90
2024-01-24T03:10:33.634Z,4.10
2024-01-24T03:13:01.835Z,3.20
2024-01-24T03:15:30.037Z,2.88
2024-01-24T03:17:59.546Z,1.73
2024-01-24T03:20:27.629Z,2.78
2024-01-24T03:22:55.919Z,2.63
2024-01-24T03:25:23.923Z,3.40
2024-01-24T03:27:52.259Z,4.63
2024-01-24T03:30:20.547Z,3.90
2024-01-24T03:32:48.758Z,2.78
2024-01-24T03:35:18.252Z,3.42
2024-01-24T03:37:46.614Z,2.67
2024-01-24T03:40:14.968Z,4.05
2024-01-24T03:42:43.634Z,3.08
2024-01-24T03:45:12.227Z,2.63
2024-01-24T03:47:40.647Z,4.63
2024-01-24T03:50:09.519Z,4.15
2024-01-24T03:52:38.987Z,3.75
2024-01-24T03:55:07.902Z,3.67
2024-01-24T03:57:36.084Z,3.58
2024-01-24T04:00:06.984Z,3.20
2024-01-24T04:02:35.200Z,2.80
2024-01-24T04:05:03.550Z,2.22
2024-01-24T04:07:31.692Z,6.05
2024-01-24T04:10:02.965Z,2.95
2024-01-24T04:12:31.088Z,2.83
2024-01-24T04:14:59.093Z,2.58
2024-01-24T04:17:27.450Z,2.00
2024-01-24T04:19:55.677Z,1.65
2024-01-24T04:22:23.770Z,3.53
2024-01-24T04:24:51.854Z,2.30
2024-01-24T04:27:21.879Z,5.70
2024-01-24T04:29:50.026Z,2.78
2024-01-24T04:32:18.103Z,3.08
2024-01-24T04:34:46.815Z,3.28
2024-01-24T04:37:15.078Z,3.13
2024-01-24T04:39:43.324Z,4.30
2024-01-24T04:42:16.413Z,2.85
2024-01-24T04:44:47.056Z,3.83
2024-01-24T04:47:15.673Z,3.70
2024-01-24T04:49:45.863Z,4.32
2024-01-24T04:52:15.800Z,2.72
2024-01-24T04:54:44.466Z,5.95
2024-01-24T04:57:12.812Z,3.55
2024-01-24T04:59:49.769Z,2.47
2024-01-24T05:02:24.994Z,3.22
2024-01-24T05:04:53.159Z,2.83
2024-01-24T05:07:21.371Z,3.42
2024-01-24T05:09:49.505Z,5.18
2024-01-24T05:12:17.641Z,3.47
2024-01-24T05:14:45.795Z,2.67
2024-01-24T05:17:13.908Z,3.53
2024-01-24T05:19:43.370Z,4.78
2024-01-24T05:22:11.985Z,3.20
2024-01-24T05:24:40.043Z,3.63
2024-01-24T05:27:09.183Z,2.75
2024-01-24T05:29:37.219Z,5.32
2024-01-24T05:32:05.761Z,5.32
2024-01-24T05:34:33.914Z,2.80
2024-01-24T05:37:03.556Z,2.72
2024-01-24T05:39:31.630Z,2.63
2024-01-24T05:42:00.190Z,5.07
2024-01-24T05:44:28.256Z,2.00
2024-01-24T05:46:56.350Z,1.77
2024-01-24T05:49:24.492Z,1.13
2024-01-24T05:51:52.618Z,3.25
2024-01-24T05:54:22.100Z,3.35
2024-01-24T05:56:50.167Z,3.88
2024-01-24T05:59:26.000Z,3.63
2024-01-24T06:01:54.089Z,2.25
2024-01-24T06:04:22.348Z,2.97
2024-01-24T06:06:50.557Z,2.95
2024-01-24T06:09:21.783Z,4.47
2024-01-24T06:11:51.284Z,3.33
2024-01-24T06:14:19.815Z,3.88
2024-01-24T06:16:47.965Z,2.42
2024-01-24T06:19:16.159Z,4.35
2024-01-24T06:21:44.276Z,4.03
2024-01-24T06:24:12.428Z,2.20
2024-01-24T06:26:40.807Z,3.13
2024-01-24T06:29:10.677Z,3.00
2024-01-24T06:31:38.684Z,4.18
2024-01-24T06:34:06.780Z,2.83
2024-01-24T06:36:35.587Z,2.00
2024-01-24T06:39:03.846Z,3.10
2024-01-24T06:41:32.109Z,3.53
2024-01-24T06:44:00.292Z,3.83
2024-01-24T06:46:29.788Z,1.70
2024-01-24T06:48:57.989Z,2.13
2024-01-24T06:51:26.236Z,4.13
2024-01-24T06:53:54.314Z,3.70
2024-01-24T06:56:23.544Z,2.83
2024-01-24T06:58:51.994Z,3.10
2024-01-24T07:01:20.133Z,3.05
2024-01-24T07:03:49.864Z,3.08
2024-01-24T07:06:18.456Z,2.05
2024-01-24T07:08:46.896Z,2.03
2024-01-24T07:11:15.013Z,2.92
2024-01-24T07:13:43.195Z,3.22
2024-01-24T07:16:11.495Z,1.63
2024-01-24T07:18:42.399Z,2.45
2024-01-24T07:21:12.357Z,3.15
2024-01-24T07:23:40.459Z,2.58
2024-01-24T07:26:08.676Z,1.05
2024-01-24T07:28:36.736Z,2.50
2024-01-24T07:31:05.078Z,1.80
2024-01-24T07:33:33.323Z,2.60
2024-01-24T07:36:01.543Z,2.30
2024-01-24T07:38:31.502Z,2.63
2024-01-24T07:40:59.589Z,2.95
2024-01-24T07:43:27.893Z,1.70
2024-01-24T07:45:56.428Z,1.27
2024-01-24T07:48:24.802Z,1.35
2024-01-24T07:50:53.548Z,2.45
2024-01-24T07:53:21.708Z,1.48
2024-01-24T07:55:56.234Z,1.85
2024-01-24T07:58:31.807Z,1.80
2024-01-24T08:01:04.083Z,3.13
2024-01-24T08:03:32.593Z,1.52
2024-01-24T08:06:00.921Z,1.77
2024-01-24T08:08:30.248Z,1.10
2024-01-24T08:10:59.730Z,1.08
2024-01-24T08:13:27.922Z,0.70
2024-01-24T08:15:58.925Z,1.38
2024-01-24T08:18:27.412Z,0.88
2024-01-24T08:20:56.639Z,0.75
2024-01-24T08:23:31.526Z,2.55
2024-01-24T08:26:07.995Z,1.25
2024-01-24T08:28:36.377Z,1.38
2024-01-24T08:31:04.673Z,1.20
2024-01-24T08:33:34.116Z,0.85
2024-01-24T08:36:02.426Z,0.82
2024-01-24T08:38:31.396Z,0.43
2024-01-24T08:40:59.518Z,1.05
2024-01-24T08:43:29.194Z,1.25
2024-01-24T08:45:57.441Z,0.85
2024-01-24T08:48:26.360Z,0.82
2024-01-24T08:50:55.033Z,0.88
2024-01-24T08:53:23.300Z,0.77
2024-01-24T08:55:56.056Z,0.60
2024-01-24T08:58:24.448Z,1.02
2024-01-24T09:00:55.224Z,0.85
2024-01-24T09:03:23.812Z,0.90
2024-01-24T09:05:53.531Z,1.02
2024-01-24T09:08:22.084Z,0.65
2024-01-24T09:10:50.297Z,1.05
2024-01-24T09:13:21.902Z,0.90
2024-01-24T09:15:50.421Z,0.75
2024-01-24T09:18:20.283Z,0.38
2024-01-24T09:20:49.806Z,0.47
2024-01-24T09:23:17.015Z,0.30
2024-01-24T09:25:45.434Z,0.50
2024-01-24T09:28:13.621Z,0.50
2024-01-24T09:30:41.935Z,0.35
2024-01-24T09:33:11.217Z,0.82
2024-01-24T09:35:41.735Z,0.70
2024-01-24T09:38:09.934Z,1.20
2024-01-24T09:40:38.331Z,0.40
2024-01-24T09:43:10.322Z,2.85
2024-01-24T09:45:40.788Z,1.33
2024-01-24T09:48:11.377Z,1.00
2024-01-24T09:50:42.731Z,0.47
2024-01-24T09:53:17.239Z,0.73
2024-01-24T09:55:47.029Z,1.23
2024-01-24T09:58:18.076Z,0.73
2024-01-24T10:00:49.223Z,0.60
2024-01-24T10:03:19.587Z,1.70
2024-01-24T10:05:51.862Z,0.50
2024-01-24T10:08:20.746Z,0.50
2024-01-24T10:10:49.021Z,1.60
2024-01-24T10:13:17.684Z,1.83
2024-01-24T10:15:45.858Z,0.82
2024-01-24T10:18:14.339Z,1.13
2024-01-24T10:20:43.909Z,1.65
2024-01-24T10:23:24.070Z,0.65
2024-01-24T10:25:52.824Z,2.67
2024-01-24T10:28:22.529Z,1.13
2024-01-24T10:30:51.259Z,2.67
2024-01-24T10:33:20.603Z,2.20
2024-01-24T10:35:50.214Z,0.40
2024-01-24T10:38:24.477Z,0.50
2024-01-24T10:40:59.570Z,0.95
2024-01-24T10:43:28.681Z,2.10
2024-01-24T10:45:57.730Z,0.50
2024-01-24T10:48:26.644Z,2.17
2024-01-24T10:50:58.340Z,0.73
2024-01-24T10:53:29.392Z,0.52
2024-01-24T10:55:59.856Z,0.43
2024-01-24T10:58:30.626Z,0.82
2024-01-24T11:01:00.399Z,0.63
2024-01-24T11:03:29.234Z,0.47
2024-01-24T11:06:01.900Z,4.80
2024-01-24T11:08:43.798Z,0.90
2024-01-24T11:11:20.523Z,1.15
2024-01-24T11:13:48.794Z,1.17
2024-01-24T11:16:42.293Z,0.80
2024-01-24T11:19:24.874Z,1.23
2024-01-24T11:21:55.185Z,2.90
2024-01-24T11:24:54.114Z,0.80
2024-01-24T11:27:35.872Z,0.65
2024-01-24T11:30:19.862Z,0.70
2024-01-24T11:33:05.798Z,0.57
2024-01-24T11:35:37.185Z,0.77
2024-01-24T11:38:16.830Z,0.40
2024-01-24T11:40:59.091Z,1.40
2024-01-24T11:43:31.093Z,0.77
2024-01-24T11:46:04.765Z,1.20
2024-01-24T11:48:34.832Z,1.17
2024-01-24T11:51:04.161Z,0.80
2024-01-24T11:53:32.513Z,0.40
2024-01-24T11:56:04.007Z,0.82
2024-01-24T11:58:32.488Z,0.82
2024-01-24T12:01:05.338Z,0.75
2024-01-24T12:03:34.029Z,1.27
2024-01-24T12:06:03.360Z,0.90
2024-01-24T12:08:31.575Z,1.02
2024-01-24T12:11:01.122Z,1.38
2024-01-24T12:13:30.848Z,0.77
2024-01-24T12:16:00.690Z,1.58
2024-01-24T12:18:29.633Z,2.20
2024-01-24T12:21:02.279Z,4.03
2024-01-24T12:23:31.460Z,1.50
2024-01-24T12:26:01.218Z,0.77
2024-01-24T12:28:30.983Z,1.30
2024-01-24T12:31:00.213Z,0.98
2024-01-24T12:33:34.092Z,1.00
2024-01-24T12:36:08.132Z,1.33
2024-01-24T12:38:37.541Z,1.40
2024-01-24T12:41:07.698Z,0.90
2024-01-24T12:43:37.864Z,2.38
2024-01-24T12:46:10.517Z,0.88
2024-01-24T12:48:39.588Z,1.92
2024-01-24T12:51:08.522Z,1.27
2024-01-24T12:53:37.163Z,2.17
2024-01-24T12:56:07.762Z,1.60
2024-01-24T12:58:36.052Z,2.47
2024-01-24T13:01:04.839Z,1.17
2024-01-24T13:03:33.462Z,2.55
2024-01-24T13:06:01.887Z,1.73
2024-01-24T13:08:30.307Z,4.13
2024-01-24T13:10:58.616Z,4.63
2024-01-24T13:13:28.337Z,3.53
2024-01-24T13:15:58.479Z,1.50
2024-01-24T13:18:26.971Z,3.95
2024-01-24T13:20:55.578Z,3.10
2024-01-24T13:23:23.773Z,8.07
2024-01-24T13:26:02.127Z,3.25
2024-01-24T13:28:31.845Z,3.17
2024-01-24T13:31:00.395Z,40.25
2024-01-24T13:33:29.335Z,5.38
2024-01-24T13:35:57.546Z,14.77
2024-01-24T13:38:27.389Z,7.95
2024-01-24T13:40:55.511Z,8.35
2024-01-24T13:43:23.768Z,4.35
2024-01-24T13:45:53.317Z,6.10
2024-01-24T13:48:21.539Z,5.40
2024-01-24T13:50:49.994Z,4.30
2024-01-24T13:53:18.927Z,5.57
2024-01-24T13:55:47.192Z,8.25
2024-01-24T13:58:15.665Z,8.25
2024-01-24T14:00:44.722Z,6.30
2024-01-24T14:03:15.263Z,3.55
2024-01-24T14:05:44.528Z,1.85
2024-01-24T14:08:12.981Z,1.25
2024-01-24T14:10:41.147Z,1.90
2024-01-24T14:13:09.733Z,3.22
2024-01-24T14:15:39.442Z,1.73
2024-01-24T14:18:08.626Z,1.67
2024-01-24T14:20:38.188Z,3.17
2024-01-24T14:23:07.747Z,4.13
2024-01-24T14:25:35.842Z,2.50
2024-01-24T14:28:04.176Z,3.28
2024-01-24T14:30:32.528Z,3.25
2024-01-24T14:33:00.853Z,3.00
2024-01-24T14:35:31.834Z,2.95
2024-01-24T14:38:02.093Z,4.65
2024-01-24T14:40:30.732Z,3.35
2024-01-24T14:42:59.107Z,2.60
2024-01-24T14:45:28.450Z,3.90
2024-01-24T14:47:56.710Z,3.75
2024-01-24T14:50:25.003Z,4.68
2024-01-24T14:52:53.144Z,3.42
2024-01-24T14:55:22.759Z,4.82
2024-01-24T14:57:52.874Z,3.95
2024-01-24T15:00:21.884Z,3.10
2024-01-24T15:02:51.680Z,4.60
2024-01-24T15:05:22.362Z,3.80
2024-01-24T15:07:51.083Z,2.90
2024-01-24T15:10:19.893Z,4.45
2024-01-24T15:12:49.725Z,6.97
2024-01-24T15:15:18.587Z,8.13
2024-01-24T15:17:48.288Z,7.70
2024-01-24T15:20:17.143Z,4.15
2024-01-24T15:22:45.612Z,7.47
2024-01-24T15:25:13.919Z,6.20
2024-01-24T15:27:41.994Z,7.50
2024-01-24T15:30:14.327Z,7.68
2024-01-24T15:32:42.524Z,5.10
2024-01-24T15:35:10.758Z,7.40
2024-01-24T15:37:39.088Z,4.20
2024-01-24T15:40:11.112Z,5.85
2024-01-24T15:42:44.217Z,3.45
2024-01-24T15:45:15.242Z,4.03
2024-01-24T15:47:44.072Z,4.38
2024-01-24T15:50:13.792Z,5.90
2024-01-24T15:52:42.096Z,4.43
2024-01-24T15:55:11.061Z,5.57
2024-01-24T15:57:39.305Z,3.78
2024-01-24T16:00:11.559Z,5.97
2024-01-24T16:02:42.682Z,5.93
2024-01-24T16:05:22.039Z,5.35
2024-01-24T16:07:52.253Z,7.85
2024-01-24T16:10:20.514Z,5.38
2024-01-24T16:12:48.819Z,6.07
2024-01-24T16:15:18.271Z,5.97
2024-01-24T16:17:47.878Z,5.45
2024-01-24T16:20:16.543Z,4.05
2024-01-24T16:22:54.095Z,7.38
2024-01-24T16:25:24.253Z,7.60
2024-01-24T16:27:52.471Z,7.75
2024-01-24T16:30:21.238Z,6.78
2024-01-24T16:32:53.568Z,6.43
2024-01-24T16:35:22.094Z,8.63
2024-01-24T16:37:50.470Z,6.13
2024-01-24T16:40:18.807Z,6.82
2024-01-24T16:42:47.412Z,5.15
2024-01-24T16:45:16.035Z,7.43
2024-01-24T16:47:46.196Z,6.40
2024-01-24T16:50:16.144Z,6.18
2024-01-24T16:52:44.441Z,6.93
2024-01-24T16:55:13.347Z,13.20
2024-01-24T16:57:41.634Z,8.68
2024-01-24T17:00:11.385Z,4.20
2024-01-24T17:02:46.330Z,7.75
2024-01-24T17:05:21.175Z,7.63
2024-01-24T17:07:49.358Z,5.60
2024-01-24T17:10:18.535Z,15.32
2024-01-24T17:12:46.678Z,3.92
2024-01-24T17:15:15.228Z,6.90
2024-01-24T17:17:44.545Z,6.15
2024-01-24T17:20:12.963Z,6.68
2024-01-24T17:22:42.676Z,7.32
2024-01-24T17:25:11.724Z,7.88
2024-01-24T17:27:40.231Z,8.98
2024-01-24T17:30:11.370Z,6.25
2024-01-24T17:32:39.833Z,9.48
2024-01-24T17:35:08.656Z,5.22
2024-01-24T17:37:37.038Z,5.70
2024-01-24T17:40:08.509Z,7.75
2024-01-24T17:42:37.228Z,5.50
2024-01-24T17:45:06.232Z,6.75
2024-01-24T17:47:49.629Z,4.90
2024-01-24T17:50:18.718Z,3.72
2024-01-24T17:52:47.011Z,7.60
2024-01-24T17:55:16.493Z,7.53
2024-01-24T17:57:45.357Z,6.03
2024-01-24T18:00:15.355Z,6.68
2024-01-24T18:02:43.356Z,4.60
2024-01-24T18:05:12.360Z,5.70
2024-01-24T18:07:41.342Z,7.20
2024-01-24T18:10:10.462Z,7.53
2024-01-24T18:12:40.170Z,7.07
2024-01-24T18:15:09.076Z,8.30
2024-01-24T18:17:38.804Z,10.27
2024-01-24T18:20:08.597Z,8.38
2024-01-24T18:22:36.926Z,6.03
2024-01-24T18:25:06.119Z,11.27
2024-01-24T18:27:34.434Z,7.13
2024-01-24T18:30:04.817Z,10.68
2024-01-24T18:32:33.919Z,8.85
2024-01-24T18:35:02.352Z,8.93
2024-01-24T18:37:30.759Z,8.02
2024-01-24T18:39:58.899Z,7.55
2024-01-24T18:42:26.981Z,13.43
2024-01-24T18:44:55.096Z,15.15
2024-01-24T18:47:25.310Z,14.40
2024-01-24T18:49:54.236Z,13.75
2024-01-24T18:52:22.776Z,9.85
2024-01-24T18:54:53.290Z,12.32
2024-01-24T18:57:21.855Z,6.80
2024-01-24T18:59:50.389Z,16.10
2024-01-24T19:02:19.337Z,12.68
2024-01-24T19:04:49.537Z,11.50
2024-01-24T19:07:18.285Z,14.75
2024-01-24T19:09:48.237Z,12.80
2024-01-24T19:12:16.593Z,11.25
2024-01-24T19:14:46.741Z,10.05
2024-01-24T19:17:15.534Z,13.75
2024-01-24T19:19:43.788Z,14.20
2024-01-24T19:22:13.877Z,11.75
2024-01-24T19:24:42.238Z,16.80
2024-01-24T19:27:10.698Z,8.93
2024-01-24T19:29:39.196Z,8.93
2024-01-24T19:32:08.263Z,11.52
2024-01-24T19:34:37.292Z,14.77
2024-01-24T19:37:06.050Z,7.90
2024-01-24T19:39:35.730Z,12.73
2024-01-24T19:42:03.910Z,14.75
2024-01-24T19:44:32.024Z,11.00
2024-01-24T19:47:00.235Z,13.98
2024-01-24T19:49:28.711Z,18.67
2024-01-24T19:51:56.909Z,16.58
2024-01-24T19:54:25.002Z,8.50
2024-01-24T19:56:55.593Z,20.88
2024-01-24T19:59:23.694Z,16.55
2024-01-24T20:01:53.121Z,16.40
2024-01-24T20:04:22.029Z,20.58
2024-01-24T20:06:50.115Z,24.35
2024-01-24T20:09:19.313Z,21.25
2024-01-24T20:11:47.451Z,18.40
2024-01-24T20:14:17.521Z,21.48
2024-01-24T20:16:46.603Z,14.98
2024-01-24T20:19:15.986Z,17.95
2024-01-24T20:21:44.132Z,18.50
2024-01-24T20:24:12.889Z,21.73
2024-01-24T20:26:41.142Z,17.67
2024-01-24T20:29:09.316Z,18.98
2024-01-24T20:31:38.796Z,15.43
2024-01-24T20:34:07.350Z,14.73
2024-01-24T20:36:36.658Z,17.33
2024-01-24T20:39:05.046Z,23.17
2024-01-24T20:41:33.172Z,14.45
2024-01-24T20:44:01.312Z,26.58
2024-01-24T20:46:29.615Z,15.95
2024-01-24T20:48:59.313Z,21.48
2024-01-24T20:51:27.455Z,15.27
2024-01-24T20:53:55.532Z,22.42
2024-01-24T20:56:23.566Z,25.77
2024-01-24T20:58:52.705Z,21.83
2024-01-24T21:01:21.535Z,22.65
2024-01-24T21:03:50.358Z,21.52
2024-01-24T21:06:19.936Z,19.88
2024-01-24T21:08:48.175Z,18.15
2024-01-24T21:11:16.316Z,21.10
2024-01-24T21:13:44.359Z,15.88
2024-01-24T21:16:12.503Z,17.73
2024-01-24T21:18:40.630Z,18.08
2024-01-24T21:21:09.147Z,18.55
2024-01-24T21:23:38.653Z,16.88
2024-01-24T21:26:07.056Z,18.17
2024-01-24T21:28:35.191Z,15.15
2024-01-24T21:31:03.432Z,22.48
2024-01-24T21:33:33.037Z,20.58
2024-01-24T21:36:01.387Z,18.52
2024-01-24T21:38:29.531Z,15.90
2024-01-24T21:40:58.971Z,20.42
2024-01-24T21:43:27.113Z,17.92
2024-01-24T21:45:55.374Z,21.33
2024-01-24T21:48:23.483Z,21.20
2024-01-24T21:50:51.801Z,13.55
2024-01-24T21:53:20.340Z,20.98
2024-01-24T21:55:48.651Z,19.60
2024-01-24T21:58:18.149Z,13.90
2024-01-24T22:00:46.304Z,15.25
2024-01-24T22:03:14.416Z,11.52
2024-01-24T22:05:42.856Z,12.38
2024-01-24T22:08:11.188Z,14.75
2024-01-24T22:10:39.330Z,16.95
2024-01-24T22:13:07.787Z,17.90
2024-01-24T22:15:37.325Z,16.45
2024-01-24T22:18:05.907Z,14.20
2024-01-24T22:20:33.987Z,13.30
2024-01-24T22:23:02.064Z,16.63
2024-01-24T22:25:30.339Z,11.98
2024-01-24T22:27:58.566Z,19.08
2024-01-24T22:30:26.622Z,18.02
2024-01-24T22:32:56.083Z,18.40
2024-01-24T22:35:24.354Z,12.70
2024-01-24T22:37:52.457Z,19.25
2024-01-24T22:40:21.004Z,16.23
2024-01-24T22:42:49.400Z,22.25
2024-01-24T22:45:17.539Z,17.92
2024-01-24T22:47:45.676Z,17.55
2024-01-24T22:50:17.334Z,14.18
2024-01-24T22:52:46.664Z,15.70
2024-01-24T22:55:14.969Z,19.75
2024-01-24T22:57:47.723Z,23.25
2024-01-24T23:00:18.613Z,23.85
2024-01-24T23:02:47.469Z,22.80
2024-01-24T23:05:17.263Z,17.20
2024-01-24T23:07:45.555Z,19.83
2024-01-24T23:10:13.861Z,21.10
2024-01-24T23:12:42.052Z,26.13
2024-01-24T23:15:10.550Z,21.23
2024-01-24T23:17:38.690Z,23.13
2024-01-24T23:20:09.328Z,17.38
2024-01-24T23:22:38.832Z,17.20
2024-01-24T23:25:07.764Z,25.27
2024-01-24T23:27:35.915Z,18.05
2024-01-24T23:30:04.222Z,18.00
2024-01-24T23:32:32.288Z,24.60
2024-01-24T23:35:00.628Z,26.83
2024-01-24T23:37:28.961Z,36.22
2024-01-24T23:39:58.583Z,26.20
2024-01-24T23:42:26.886Z,33.80
2024-01-24T23:44:55.299Z,21.40
2024-01-24T23:47:23.303Z,28.08
2024-01-24T23:49:51.527Z,17.00
2024-01-24T23:52:19.873Z,25.92
2024-01-24T23:54:48.206Z,19.27
2024-01-24T23:57:17.643Z,17.15
2024-01-24T23:59:45.701Z,17.08
